Time;durP1;ratioP1;P1;durP2;ratioP2;P2;SDS_P1;SDS_P2;PMS_P1;PMS_P2;Temp;Humidity;BMP_temperature;BMP_pressure;BME280_temperature;BME280_humidity;BME280_pressure;Samples;Min_cycle;Max_cycle;Signal;HPM_P1;HPM_P2
2023/12/08 00:02:04;;;;;;;26.88;15.88;;;;;;;1.28;100.00;100585.41;5086405;28;20494;-71
2023/12/08 00:04:29;;;;;;;27.00;15.63;;;;;;;1.30;100.00;100581.13;5083919;28;20024;-71
2023/12/08 00:06:55;;;;;;;28.20;15.80;;;;;;;1.30;100.00;100588.06;5087086;28;20032;-72
2023/12/08 00:09:20;;;;;;;26.95;15.43;;;;;;;1.26;100.00;100581.84;5083888;28;20020;-71
2023/12/08 00:11:45;;;;;;;28.00;16.00;;;;;;;1.27;100.00;100578.41;5085680;28;20181;-72
2023/12/08 00:14:11;;;;;;;27.48;15.73;;;;;;;1.27;100.00;100572.31;5084819;28;20459;-71
2023/12/08 00:16:36;;;;;;;27.98;16.35;;;;;;;1.25;100.00;100568.75;5084450;28;20060;-70
2023/12/08 00:19:02;;;;;;;26.80;15.90;;;;;;;1.26;100.00;100566.22;5086540;28;20146;-71
2023/12/08 00:21:27;;;;;;;27.50;15.98;;;;;;;1.24;100.00;100565.28;5083342;28;20111;-71
2023/12/08 00:23:52;;;;;;;27.33;15.50;;;;;;;1.23;100.00;100568.72;5086496;28;20028;-70
2023/12/08 00:26:18;;;;;;;27.58;16.30;;;;;;;1.24;100.00;100570.50;5084227;28;20571;-70
2023/12/08 00:28:44;;;;;;;28.10;16.73;;;;;;;1.28;100.00;100571.47;5085173;28;20120;-69
2023/12/08 00:31:09;;;;;;;27.88;16.52;;;;;;;1.28;100.00;100568.88;5085160;28;20039;-69
2023/12/08 00:33:35;;;;;;;27.25;16.30;;;;;;;1.32;100.00;100565.56;5084296;28;20024;-68
2023/12/08 00:36:00;;;;;;;27.88;16.73;;;;;;;1.30;100.00;100564.63;5086517;28;20032;-71
2023/12/08 00:38:26;;;;;;;28.75;16.80;;;;;;;1.29;100.00;100553.31;5083159;28;20035;-68
2023/12/08 00:40:52;;;;;;;27.90;16.05;;;;;;;1.31;100.00;100548.16;5084742;28;20110;-68
2023/12/08 00:43:17;;;;;;;28.75;16.98;;;;;;;1.34;100.00;100550.88;5083711;28;20044;-68
2023/12/08 00:45:43;;;;;;;27.60;16.10;;;;;;;1.37;100.00;100551.88;5084986;28;20033;-68
2023/12/08 00:48:08;;;;;;;27.98;16.15;;;;;;;1.33;100.00;100552.59;5085012;28;20456;-68
2023/12/08 00:50:33;;;;;;;27.70;16.63;;;;;;;1.36;100.00;100550.09;5083278;28;20032;-68
2023/12/08 00:52:58;;;;;;;28.17;16.38;;;;;;;1.41;100.00;100541.56;5086629;28;20032;-70
2023/12/08 00:55:24;;;;;;;27.70;16.48;;;;;;;1.41;100.00;100544.19;5082656;28;20021;-72
2023/12/08 00:57:49;;;;;;;27.85;16.40;;;;;;;1.39;100.00;100546.72;5084138;28;20120;-71
2023/12/08 01:00:17;;;;;;;27.30;15.77;;;;;;;1.42;100.00;100538.16;5084054;28;20454;-73
2023/12/08 01:02:43;;;;;;;28.15;16.30;;;;;;;1.41;100.00;100533.75;5084621;28;20037;-73
2023/12/08 01:05:08;;;;;;;28.17;15.90;;;;;;;1.43;100.00;100532.06;5084823;28;20031;-73
2023/12/08 01:07:33;;;;;;;27.17;15.63;;;;;;;1.42;100.00;100531.19;5083391;28;20032;-74
2023/12/08 01:09:59;;;;;;;27.50;16.10;;;;;;;1.46;100.00;100529.63;5085784;28;20103;-73
2023/12/08 01:12:25;;;;;;;27.80;16.52;;;;;;;1.42;100.00;100520.78;5082554;28;20063;-72
2023/12/08 01:14:50;;;;;;;28.90;16.30;;;;;;;1.46;100.00;100519.19;5085449;28;20463;-72
2023/12/08 01:17:16;;;;;;;27.20;16.23;;;;;;;1.46;100.00;100513.97;5083668;28;20051;-71
2023/12/08 01:19:41;;;;;;;27.00;16.00;;;;;;;1.47;100.00;100513.13;5082561;28;20112;-72
2023/12/08 01:22:07;;;;;;;26.98;16.00;;;;;;;1.43;100.00;100506.94;5084832;28;20032;-70
2023/12/08 01:24:32;;;;;;;27.45;16.10;;;;;;;1.46;100.00;100503.56;5081363;28;20028;-71
2023/12/08 01:26:57;;;;;;;27.45;16.60;;;;;;;1.51;100.00;100510.69;5085780;28;20021;-71
2023/12/08 01:29:23;;;;;;;26.92;15.75;;;;;;;1.48;100.00;100505.38;5082268;28;20414;-73
2023/12/08 01:31:48;;;;;;;26.70;16.05;;;;;;;1.48;100.00;100507.97;5084465;28;20124;-68
2023/12/08 01:34:13;;;;;;;28.05;16.08;;;;;;;1.49;100.00;100496.72;5083693;28;20020;-70
2023/12/08 01:36:38;;;;;;;27.00;15.70;;;;;;;1.48;100.00;100496.66;5083016;28;20036;-71
2023/12/08 01:39:04;;;;;;;27.50;15.98;;;;;;;1.50;100.00;100488.09;5084566;28;20032;-70
2023/12/08 01:41:29;;;;;;;26.80;15.23;;;;;;;1.46;100.00;100486.19;5081876;28;20036;-71
2023/12/08 01:43:54;;;;;;;26.88;15.65;;;;;;;1.41;100.00;100494.69;5085176;28;20035;-71
2023/12/08 01:46:21;;;;;;;27.67;16.10;;;;;;;1.39;100.00;100487.69;5082232;28;20040;-71
2023/12/08 01:48:47;;;;;;;26.45;15.57;;;;;;;1.41;100.00;100482.53;5084073;28;20486;-71
2023/12/08 01:51:14;;;;;;;26.60;15.50;;;;;;;1.41;100.00;100477.31;5083423;28;20024;-70
2023/12/08 01:53:41;;;;;;;26.85;15.75;;;;;;;1.37;100.00;100470.25;5083059;28;20032;-71
2023/12/08 01:56:08;;;;;;;27.50;15.45;;;;;;;1.34;100.00;100491.88;5084281;28;20112;-71
2023/12/08 01:58:34;;;;;;;27.58;16.08;;;;;;;1.31;100.00;100483.94;5082090;28;20028;-71
2023/12/08 02:01:03;;;;;;;26.42;15.55;;;;;;;1.34;100.00;100484.06;5085035;28;20031;-72
2023/12/08 02:03:30;;;;;;;27.08;16.08;;;;;;;1.36;100.00;100482.38;5078269;28;20028;-71
2023/12/08 02:05:57;;;;;;;27.75;16.65;;;;;;;1.35;100.00;100483.19;5077364;28;20364;-71
2023/12/08 02:08:22;;;;;;;27.65;16.58;;;;;;;1.32;100.00;100467.47;5084412;28;20120;-70
2023/12/08 02:10:47;;;;;;;27.17;16.05;;;;;;;1.37;100.00;100476.34;5082466;28;20514;-71
2023/12/08 02:13:16;;;;;;;26.92;15.55;;;;;;;1.33;100.00;100474.44;5082889;28;20077;-71
2023/12/08 02:15:43;;;;;;;27.98;16.23;;;;;;;1.29;100.00;100461.28;5083143;28;20036;-71
2023/12/08 02:18:10;;;;;;;28.35;16.88;;;;;;;1.30;100.00;100457.84;5082437;28;20039;-71
2023/12/08 02:20:36;;;;;;;27.52;16.88;;;;;;;1.28;100.00;100451.66;5083898;28;20101;-73
2023/12/08 02:23:05;;;;;;;28.33;17.00;;;;;;;1.27;100.00;100448.19;5081318;28;20063;-70
2023/12/08 02:25:31;;;;;;;29.08;17.55;;;;;;;1.25;100.00;100444.63;5084675;28;20031;-73
2023/12/08 02:27:57;;;;;;;28.35;17.17;;;;;;;1.25;100.00;100435.94;5081153;28;20472;-70
2023/12/08 02:30:22;;;;;;;27.85;17.02;;;;;;;1.26;100.00;100435.13;5084076;28;20036;-73
2023/12/08 02:33:11;;;;;;;28.58;16.88;;;;;;;1.27;100.00;100447.28;5082336;28;20364;-72
2023/12/08 02:35:39;;;;;;;28.67;16.98;;;;;;;1.21;100.00;100459.28;5079058;28;20044;-72
2023/12/08 02:38:06;;;;;;;28.17;17.33;;;;;;;1.17;100.00;100457.38;5083938;28;20172;-71
2023/12/08 02:40:33;;;;;;;29.63;17.85;;;;;;;1.12;100.00;100461.56;5081136;28;20396;-72
2023/12/08 02:42:58;;;;;;;28.60;17.67;;;;;;;1.08;100.00;100450.94;5084564;28;20106;-72
2023/12/08 02:45:24;;;;;;;29.88;18.42;;;;;;;1.03;100.00;100445.56;5081170;28;20028;-68
2023/12/08 02:47:49;;;;;;;30.23;18.38;;;;;;;0.99;100.00;100444.59;5083449;28;20475;-72
2023/12/08 02:50:14;;;;;;;31.42;19.90;;;;;;;1.00;100.00;100446.34;5082616;28;20550;-73
2023/12/08 02:52:40;;;;;;;31.42;18.90;;;;;;;0.98;100.00;100453.22;5082130;28;20097;-73
2023/12/08 02:55:06;;;;;;;30.23;19.05;;;;;;;0.98;100.00;100447.16;5083901;28;20028;-71
2023/12/08 02:57:31;;;;;;;29.38;18.73;;;;;;;0.99;100.00;100442.00;5081044;28;20433;-73
2023/12/08 02:59:56;;;;;;;31.05;19.83;;;;;;;0.96;100.00;100461.81;5084237;28;20024;-70
2023/12/08 03:02:22;;;;;;;29.70;19.15;;;;;;;0.97;100.00;100464.47;5081460;28;20036;-72
2023/12/08 03:04:47;;;;;;;30.77;19.77;;;;;;;0.99;100.00;100461.91;5083527;28;20073;-71
2023/12/08 03:07:12;;;;;;;32.17;20.13;;;;;;;1.01;100.00;100455.94;5082499;28;20123;-71
2023/12/08 03:09:38;;;;;;;30.52;19.73;;;;;;;1.02;100.00;100462.94;5081794;28;20116;-71
2023/12/08 03:12:04;;;;;;;31.83;20.25;;;;;;;1.06;100.00;100468.25;5083738;28;20024;-71
2023/12/08 03:14:29;;;;;;;30.90;19.63;;;;;;;1.06;100.00;100458.69;5080684;28;20471;-71
2023/12/08 03:16:54;;;;;;;31.55;19.77;;;;;;;1.08;100.00;100461.38;5084138;28;20459;-71
2023/12/08 03:19:20;;;;;;;31.40;19.80;;;;;;;1.06;100.00;100453.50;5081324;28;20541;-71
2023/12/08 03:21:45;;;;;;;30.83;19.88;;;;;;;1.05;100.00;100451.75;5082501;28;20036;-71
2023/12/08 03:24:10;;;;;;;31.40;20.15;;;;;;;1.01;100.00;100445.53;5081661;28;20024;-72
2023/12/08 03:26:36;;;;;;;31.48;20.27;;;;;;;1.01;100.00;100455.94;5081100;28;20108;-71
2023/12/08 03:29:01;;;;;;;31.73;20.40;;;;;;;1.01;100.00;100444.66;5083968;28;20027;-71
2023/12/08 03:31:29;;;;;;;33.25;20.77;;;;;;;1.02;100.00;100456.81;5062614;28;20119;-71
2023/12/08 03:33:54;;;;;;;31.30;20.08;;;;;;;1.02;100.00;100451.59;5083645;28;20016;-71
2023/12/08 03:36:20;;;;;;;30.92;20.08;;;;;;;1.02;100.00;100452.50;5081390;28;20115;-71
2023/12/08 03:38:45;;;;;;;32.08;20.27;;;;;;;0.97;100.00;100454.03;5082678;28;20387;-70
2023/12/08 03:41:11;;;;;;;32.40;20.45;;;;;;;0.94;100.00;100448.72;5081190;28;20040;-69
2023/12/08 03:43:37;;;;;;;33.85;21.33;;;;;;;0.97;100.00;100454.03;5080907;28;20043;-73
2023/12/08 03:46:04;;;;;;;33.78;21.13;;;;;;;0.96;100.00;100447.09;5083830;28;20086;-72
2023/12/08 03:48:30;;;;;;;34.22;21.52;;;;;;;0.97;100.00;100443.63;5082642;28;20379;-73
2023/12/08 03:50:55;;;;;;;33.08;21.60;;;;;;;0.96;100.00;100444.50;5087484;28;20107;-72
2023/12/08 03:53:20;;;;;;;34.15;21.55;;;;;;;0.93;100.00;100446.94;5084672;28;20663;-72
2023/12/08 03:55:46;;;;;;;33.70;21.73;;;;;;;0.95;100.00;100437.50;5085858;28;20024;-72
2023/12/08 03:58:11;;;;;;;33.33;21.73;;;;;;;0.94;100.00;100438.31;5086232;28;20039;-72
2023/12/08 04:00:37;;;;;;;34.55;21.42;;;;;;;0.94;100.00;100433.13;5084452;28;20025;-72
2023/12/08 04:03:02;;;;;;;35.83;22.15;;;;;;;0.93;100.00;100436.53;5087122;28;20036;-72
2023/12/08 04:05:28;;;;;;;34.88;22.50;;;;;;;0.92;100.00;100424.38;5083960;28;20467;-72
2023/12/08 04:07:53;;;;;;;35.42;22.58;;;;;;;0.87;100.00;100423.31;5085394;28;20039;-72
2023/12/08 04:10:18;;;;;;;35.35;23.38;;;;;;;0.86;100.00;100414.63;5084522;28;20077;-72
2023/12/08 04:12:44;;;;;;;34.35;22.80;;;;;;;0.88;100.00;100417.28;5085378;28;20028;-72
2023/12/08 04:15:09;;;;;;;35.65;23.67;;;;;;;0.86;100.00;100419.81;5085971;28;20467;-73
2023/12/08 04:17:35;;;;;;;35.75;22.83;;;;;;;0.85;100.00;100411.97;5083820;28;20020;-72
2023/12/08 04:20:00;;;;;;;34.97;22.75;;;;;;;0.86;100.00;100418.94;5087044;28;20382;-73
2023/12/08 04:22:26;;;;;;;34.40;22.40;;;;;;;0.89;100.00;100413.84;5083533;28;20442;-71
2023/12/08 04:24:52;;;;;;;35.83;23.10;;;;;;;0.89;100.00;100419.06;5086094;28;20025;-70
2023/12/08 04:27:17;;;;;;;36.17;23.23;;;;;;;0.90;100.00;100436.44;5084767;28;20028;-71
2023/12/08 04:29:42;;;;;;;36.85;24.05;;;;;;;0.88;100.00;100426.81;5084768;28;20025;-73
2023/12/08 04:32:08;;;;;;;36.30;23.33;;;;;;;0.90;100.00;100431.22;5086002;28;20518;-72
2023/12/08 04:34:33;;;;;;;36.00;23.33;;;;;;;0.89;100.00;100432.06;5082027;28;20032;-72
2023/12/08 04:36:58;;;;;;;36.08;23.60;;;;;;;0.91;100.00;100435.59;5086449;28;20376;-71
2023/12/08 04:39:24;;;;;;;36.10;23.27;;;;;;;0.92;100.00;100429.59;5083584;28;20375;-72
2023/12/08 04:41:49;;;;;;;36.40;23.27;;;;;;;0.97;100.00;100419.34;5083963;28;20453;-70
2023/12/08 04:44:14;;;;;;;37.25;23.70;;;;;;;0.97;100.00;100398.50;5084705;28;20455;-72
2023/12/08 04:46:40;;;;;;;35.92;23.83;;;;;;;0.98;100.00;100414.19;5084221;28;20487;-69
2023/12/08 04:49:05;;;;;;;36.67;23.23;;;;;;;1.01;100.00;100429.91;5086127;28;20517;-73
2023/12/08 04:51:30;;;;;;;37.33;23.50;;;;;;;1.03;100.00;100442.97;5082959;28;20450;-71
2023/12/08 04:53:56;;;;;;;35.78;23.42;;;;;;;1.06;100.00;100437.00;5086211;28;20028;-72
2023/12/08 04:56:21;;;;;;;36.45;23.90;;;;;;;1.08;100.00;100414.50;5083550;28;20055;-70
2023/12/08 04:58:47;;;;;;;36.08;23.38;;;;;;;1.08;100.00;100419.69;5083169;28;20075;-71
2023/12/08 05:01:14;;;;;;;36.47;22.98;;;;;;;1.10;100.00;100420.66;5084764;28;20386;-73
2023/12/08 05:03:40;;;;;;;36.13;23.33;;;;;;;1.11;100.00;100412.03;5083488;28;20043;-71
2023/12/08 05:06:07;;;;;;;35.53;23.38;;;;;;;1.13;100.00;100415.56;5085697;28;20471;-71
2023/12/08 05:08:32;;;;;;;36.10;23.05;;;;;;;1.15;100.00;100411.28;5082917;28;20111;-69
2023/12/08 05:10:57;;;;;;;35.45;22.42;;;;;;;1.15;100.00;100408.69;5078295;28;20507;-69
2023/12/08 05:13:22;;;;;;;34.22;21.88;;;;;;;1.16;100.00;100410.47;5085332;28;20067;-69
2023/12/08 05:15:48;;;;;;;34.88;22.30;;;;;;;1.19;100.00;100405.34;5083549;28;20042;-71
2023/12/08 05:18:14;;;;;;;36.63;22.75;;;;;;;1.21;100.00;100401.09;5083667;28;20033;-68
2023/12/08 05:20:39;;;;;;;35.03;22.83;;;;;;;1.23;100.00;100398.56;5084949;28;20028;-71
2023/12/08 05:23:05;;;;;;;35.42;21.23;;;;;;;1.23;100.00;100391.63;5082489;28;20396;-71
2023/12/08 05:25:30;;;;;;;34.72;21.90;;;;;;;1.26;100.00;100388.25;5085607;28;20052;-70
2023/12/08 05:27:55;;;;;;;34.33;21.90;;;;;;;1.28;100.00;100403.09;5082772;28;20094;-70
2023/12/08 05:30:21;;;;;;;35.63;22.20;;;;;;;1.29;100.00;100401.38;5084567;28;20025;-70
2023/12/08 05:32:46;;;;;;;36.47;23.23;;;;;;;1.28;100.00;100400.50;5083638;28;20031;-70
2023/12/08 05:35:12;;;;;;;34.78;21.77;;;;;;;1.29;100.00;100410.06;5083376;28;20460;-70
2023/12/08 05:37:37;;;;;;;36.40;22.65;;;;;;;1.31;100.00;100417.91;5084605;28;20031;-71
2023/12/08 05:40:03;;;;;;;35.70;22.48;;;;;;;1.33;100.00;100422.34;5081853;28;20024;-70
2023/12/08 05:42:28;;;;;;;35.88;22.42;;;;;;;1.34;100.00;100416.31;5077942;28;20569;-68
2023/12/08 05:44:54;;;;;;;34.78;21.95;;;;;;;1.39;100.00;100421.69;5083407;28;20115;-69
2023/12/08 05:47:19;;;;;;;35.70;22.38;;;;;;;1.41;100.00;100425.22;5082986;28;20478;-71
2023/12/08 05:49:44;;;;;;;34.78;21.77;;;;;;;1.46;100.00;100430.63;5083228;28;20384;-68
2023/12/08 05:52:11;;;;;;;35.10;22.35;;;;;;;1.49;100.00;100429.00;5083949;28;20531;-69
2023/12/08 05:54:36;;;;;;;35.45;21.73;;;;;;;1.54;100.00;100429.13;5082540;28;20471;-69
2023/12/08 05:57:02;;;;;;;36.13;22.90;;;;;;;1.60;100.00;100431.06;5084956;28;20060;-72
2023/12/08 05:59:27;;;;;;;35.95;21.80;;;;;;;1.59;100.00;100432.81;5081743;28;20037;-73
2023/12/08 06:01:52;;;;;;;35.42;22.08;;;;;;;1.61;100.00;100433.72;5084300;28;20118;-72
2023/12/08 06:04:17;;;;;;;35.17;21.67;;;;;;;1.63;100.00;100423.34;5082817;28;20154;-73
2023/12/08 06:06:43;;;;;;;34.70;21.98;;;;;;;1.65;100.00;100419.09;5064731;28;20098;-73
2023/12/08 06:09:09;;;;;;;35.20;22.55;;;;;;;1.68;100.00;100420.06;5082914;28;20028;-74
2023/12/08 06:11:35;;;;;;;35.45;21.27;;;;;;;1.69;100.00;100428.75;5080973;28;20021;-73
2023/12/08 06:14:00;;;;;;;34.80;21.75;;;;;;;1.70;100.00;100415.81;5084845;28;20047;-73
2023/12/08 06:16:26;;;;;;;35.53;22.02;;;;;;;1.73;100.00;100415.91;5081758;28;20024;-73
2023/12/08 06:18:51;;;;;;;36.25;22.85;;;;;;;1.78;100.00;100420.38;5083639;28;20337;-73
2023/12/08 06:21:17;;;;;;;35.17;21.85;;;;;;;1.80;100.00;100432.63;5082763;28;20039;-71
2023/12/08 06:23:42;;;;;;;35.17;22.20;;;;;;;1.83;100.00;100442.28;5082632;28;20115;-73
2023/12/08 06:26:08;;;;;;;36.85;22.02;;;;;;;1.83;100.00;100431.84;5084097;28;20032;-72
2023/12/08 06:28:33;;;;;;;36.38;22.70;;;;;;;1.88;100.00;100432.91;5080048;28;20029;-73
2023/12/08 06:30:58;;;;;;;34.45;22.27;;;;;;;1.89;100.00;100432.94;5075826;28;20409;-71
2023/12/08 06:33:24;;;;;;;35.67;22.00;;;;;;;1.91;100.00;100438.22;5083805;28;20063;-71
2023/12/08 06:35:49;;;;;;;36.88;22.60;;;;;;;1.95;100.00;100442.66;5082448;28;20107;-72
2023/12/08 06:38:15;;;;;;;37.92;22.45;;;;;;;1.97;100.00;100441.00;5082417;28;20032;-71
2023/12/08 06:40:41;;;;;;;36.35;21.92;;;;;;;1.99;100.00;100441.94;5083379;28;20032;-69
2023/12/08 06:43:06;;;;;;;37.05;23.38;;;;;;;2.01;100.00;100441.97;5081368;28;20041;-71
2023/12/08 06:45:32;;;;;;;38.15;23.40;;;;;;;2.02;100.00;100448.97;5084379;28;20092;-71
2023/12/08 06:47:57;;;;;;;38.45;23.00;;;;;;;2.02;100.00;100449.84;5081016;28;20029;-72
2023/12/08 06:50:22;;;;;;;37.38;22.95;;;;;;;2.05;100.00;100449.97;5083699;28;20542;-71
2023/12/08 06:52:51;;;;;;;37.03;22.80;;;;;;;2.06;100.00;100453.47;5082334;28;20109;-72
2023/12/08 06:55:17;;;;;;;37.53;22.98;;;;;;;2.08;100.00;100457.91;5082467;28;20033;-71
2023/12/08 06:57:42;;;;;;;39.03;23.88;;;;;;;2.11;100.00;100453.59;5083207;28;20029;-71
2023/12/08 07:00:10;;;;;;;39.20;23.67;;;;;;;2.13;100.00;100457.16;5081252;28;20028;-71
2023/12/08 07:02:36;;;;;;;39.67;24.02;;;;;;;2.13;100.00;100459.78;5084209;28;20082;-71
2023/12/08 07:05:01;;;;;;;41.53;24.67;;;;;;;2.12;100.00;100452.78;5081144;28;20028;-71
2023/12/08 07:07:27;;;;;;;40.60;24.67;;;;;;;2.13;100.00;100449.34;5083842;28;20356;-71
2023/12/08 07:09:52;;;;;;;41.70;24.75;;;;;;;2.14;100.00;100459.81;5081401;28;20036;-71
2023/12/08 07:12:17;;;;;;;41.60;24.05;;;;;;;2.13;100.00;100460.66;5082737;28;20037;-72
2023/12/08 07:14:43;;;;;;;41.45;24.52;;;;;;;2.13;100.00;100454.56;5082766;28;20356;-71
2023/12/08 07:17:08;;;;;;;40.88;24.52;;;;;;;2.14;100.00;100453.72;5081168;28;20033;-73
2023/12/08 07:19:37;;;;;;;41.60;25.35;;;;;;;2.15;100.00;100458.09;5083796;28;20040;-73
2023/12/08 07:22:02;;;;;;;44.58;25.98;;;;;;;2.14;100.00;100457.22;5080484;28;20419;-73
2023/12/08 07:24:28;;;;;;;45.20;25.90;;;;;;;2.16;100.00;100454.66;5087750;28;20043;-73
2023/12/08 07:26:54;;;;;;;46.05;26.75;;;;;;;2.19;100.00;100465.19;5085136;28;20052;-73
2023/12/08 07:29:22;;;;;;;44.83;26.35;;;;;;;2.18;100.00;100468.63;5086453;28;20065;-73
2023/12/08 07:31:47;;;;;;;46.80;27.20;;;;;;;2.20;100.00;100466.94;5086103;28;20030;-73
2023/12/08 07:34:13;;;;;;;47.83;27.20;;;;;;;2.22;100.00;100467.88;5085383;28;20111;-73
2023/12/08 07:36:38;;;;;;;47.60;27.42;;;;;;;2.25;100.00;100473.19;5086985;28;20032;-70
2023/12/08 07:39:03;;;;;;;47.65;27.80;;;;;;;2.26;100.00;100477.59;5084480;28;20093;-72
2023/12/08 07:41:29;;;;;;;48.08;27.75;;;;;;;2.27;100.00;100484.56;5086099;28;20368;-69
2023/12/08 07:43:55;;;;;;;52.50;28.40;;;;;;;2.29;100.00;100488.13;5084730;28;20021;-73
2023/12/08 07:46:22;;;;;;;50.47;28.98;;;;;;;2.30;100.00;100487.28;5086351;28;20028;-72
2023/12/08 07:48:48;;;;;;;53.17;28.95;;;;;;;2.34;100.00;100491.75;5085485;28;20031;-72
2023/12/08 07:51:13;;;;;;;53.28;30.02;;;;;;;2.36;100.00;100491.78;5085106;28;20020;-72
2023/12/08 07:53:39;;;;;;;54.00;30.15;;;;;;;2.36;100.00;100497.91;5085772;28;20113;-72
2023/12/08 07:56:05;;;;;;;55.85;29.73;;;;;;;2.41;100.00;100498.94;5083880;28;20056;-72
2023/12/08 07:58:30;;;;;;;54.83;30.60;;;;;;;2.44;100.00;100492.94;5085904;28;20036;-72
2023/12/08 08:00:56;;;;;;;54.58;30.33;;;;;;;2.46;100.00;100500.81;5084589;28;20056;-73
2023/12/08 08:03:21;;;;;;;56.22;30.35;;;;;;;2.48;100.00;100501.75;5086015;28;20029;-73
2023/12/08 08:05:46;;;;;;;61.58;31.23;;;;;;;2.49;100.00;100496.59;5085453;28;20024;-71
2023/12/08 08:08:12;;;;;;;60.60;31.35;;;;;;;2.53;100.00;100494.94;5084840;28;20025;-71
2023/12/08 08:10:37;;;;;;;63.03;31.92;;;;;;;2.54;100.00;100504.56;5085375;28;20111;-71
2023/12/08 08:13:02;;;;;;;69.43;34.13;;;;;;;2.55;100.00;100506.31;5083758;28;20491;-70
2023/12/08 08:15:28;;;;;;;60.30;33.17;;;;;;;2.58;100.00;100498.59;5086386;28;20517;-72
2023/12/08 08:17:53;;;;;;;64.22;32.22;;;;;;;2.60;100.00;100507.34;5086593;28;20497;-68
2023/12/08 08:20:19;;;;;;;65.28;32.97;;;;;;;2.65;100.00;100503.19;5083535;28;20036;-72
2023/12/08 08:22:44;;;;;;;66.22;34.33;;;;;;;2.66;100.00;100506.66;5081867;28;20536;-71
2023/12/08 08:25:10;;;;;;;63.50;33.35;;;;;;;2.70;100.00;100509.41;5080234;28;20425;-70
2023/12/08 08:27:36;;;;;;;66.35;33.78;;;;;;;2.77;100.00;100513.09;5081405;28;20031;-71
2023/12/08 08:30:02;;;;;;;65.63;34.03;;;;;;;2.82;100.00;100508.03;5080796;28;20424;-73
2023/12/08 08:32:28;;;;;;;59.88;31.73;;;;;;;2.83;100.00;100507.19;5081138;28;20024;-73
2023/12/08 08:34:53;;;;;;;71.20;35.10;;;;;;;2.84;100.00;100507.25;5080112;28;20043;-73
2023/12/08 08:37:22;;;;;;;66.03;34.67;;;;;;;2.92;100.00;100515.28;5079301;28;20999;-73
2023/12/08 08:39:48;;;;;;;66.32;35.55;;;;;;;2.94;100.00;100513.59;5084299;28;20040;-71
2023/12/08 08:42:14;;;;;;;71.63;35.90;;;;;;;2.96;100.00;100518.03;5083432;28;20045;-70
2023/12/08 08:44:39;;;;;;;73.13;33.53;;;;;;;3.02;100.00;100529.53;5085256;28;20036;-71
2023/12/08 08:47:05;;;;;;;76.05;35.22;;;;;;;3.09;100.00;100534.97;5083632;28;20073;-70
2023/12/08 08:49:30;;;;;;;77.68;36.05;;;;;;;3.12;100.00;100535.06;5084054;28;20033;-71
2023/12/08 08:51:55;;;;;;;76.90;36.22;;;;;;;3.18;100.00;100534.34;5085939;28;20028;-71
2023/12/08 08:54:21;;;;;;;80.55;35.65;;;;;;;3.22;100.00;100548.38;5083022;28;20480;-71
2023/12/08 08:56:46;;;;;;;75.85;34.70;;;;;;;3.27;100.00;100538.97;5086383;28;20115;-71
2023/12/08 08:59:11;;;;;;;77.47;35.28;;;;;;;3.32;100.00;100540.00;5083489;28;20425;-70
2023/12/08 09:01:38;;;;;;;83.25;36.03;;;;;;;3.33;100.00;100539.13;5084744;28;20056;-71
2023/12/08 09:04:04;;;;;;;72.82;34.70;;;;;;;3.38;100.00;100548.00;5084553;28;20111;-71
2023/12/08 09:06:29;;;;;;;77.05;34.95;;;;;;;3.42;100.00;100552.47;5082393;28;20039;-70
2023/12/08 09:08:55;;;;;;;74.38;33.53;;;;;;;3.47;100.00;100550.00;5085739;28;20028;-71
2023/12/08 09:11:21;;;;;;;74.40;33.90;;;;;;;3.49;100.00;100549.19;5082639;28;20112;-71
2023/12/08 09:13:47;;;;;;;70.03;31.67;;;;;;;3.56;100.00;100557.22;5085572;28;20489;-70
2023/12/08 09:16:12;;;;;;;66.60;30.42;;;;;;;3.60;100.00;100553.84;5083654;28;20024;-71
2023/12/08 09:18:37;;;;;;;67.43;30.25;;;;;;;3.65;100.00;100549.63;5084101;28;20391;-71
2023/12/08 09:21:05;;;;;;;65.40;29.98;;;;;;;3.71;100.00;100548.91;5083019;28;20039;-71
2023/12/08 09:23:30;;;;;;;67.60;31.67;;;;;;;3.77;100.00;100559.50;5083202;28;20033;-71
2023/12/08 09:25:56;;;;;;;64.70;29.63;;;;;;;3.79;100.00;100553.50;5084101;28;20084;-71
2023/12/08 09:28:21;;;;;;;67.70;29.92;;;;;;;3.83;100.00;100552.75;5082106;28;20105;-70
2023/12/08 09:30:47;;;;;;;64.00;30.65;;;;;;;3.88;100.00;100559.81;5085371;28;20059;-71
2023/12/08 09:33:13;;;;;;;62.67;29.85;;;;;;;3.92;100.00;100559.94;5083335;28;20027;-71
2023/12/08 09:35:38;;;;;;;63.17;28.98;;;;;;;3.96;100.00;100568.75;5083810;28;20028;-70
2023/12/08 09:38:04;;;;;;;70.18;29.60;;;;;;;4.01;100.00;100572.38;5083771;28;20127;-71
2023/12/08 09:40:32;;;;;;;70.32;29.88;;;;;;;4.05;100.00;100570.72;5082422;28;20040;-70
2023/12/08 09:43:06;;;;;;;62.50;28.77;;;;;;;4.08;100.00;100563.84;5084280;28;20048;-71
2023/12/08 09:45:32;;;;;;;67.10;28.50;;;;;;;4.10;100.00;100570.00;5082318;28;20107;-71
2023/12/08 09:48:00;;;;;;;67.72;28.95;;;;;;;4.14;100.00;100571.84;5084614;28;20028;-71
2023/12/08 09:50:26;;;;;;;61.65;27.50;;;;;;;4.17;100.00;100569.31;5081948;28;20414;-71
2023/12/08 09:52:53;;;;;;;71.28;28.15;;;;;;;4.19;100.00;100572.88;5085343;28;20028;-71
2023/12/08 09:55:20;;;;;;;63.88;28.00;;;;;;;4.24;100.00;100567.75;5081601;28;20536;-69
2023/12/08 09:57:45;;;;;;;63.58;28.75;;;;;;;4.29;100.00;100576.59;5084482;28;20028;-70
2023/12/08 10:00:13;;;;;;;61.47;28.42;;;;;;;4.34;100.00;100585.47;5082966;28;20078;-71
2023/12/08 10:02:40;;;;;;;64.15;28.15;;;;;;;4.41;100.00;100581.25;5083559;28;20028;-71
2023/12/08 10:05:06;;;;;;;65.85;27.40;;;;;;;4.48;100.00;100571.84;5083197;28;20085;-71
2023/12/08 10:07:34;;;;;;;62.55;27.50;;;;;;;4.56;100.00;100578.16;5082779;28;20119;-71
2023/12/08 10:10:00;;;;;;;64.15;28.40;;;;;;;4.61;100.00;100584.38;5083972;28;20040;-71
2023/12/08 10:12:25;;;;;;;60.42;27.70;;;;;;;4.66;100.00;100574.91;5081367;28;20372;-69
2023/12/08 10:14:56;;;;;;;65.07;26.80;;;;;;;4.69;100.00;100571.50;5084979;28;20028;-70
2023/12/08 10:17:22;;;;;;;60.25;26.88;;;;;;;4.74;100.00;100564.59;5077746;28;20043;-70
2023/12/08 10:19:47;;;;;;;67.03;28.40;;;;;;;4.81;100.00;100571.75;5084398;28;20390;-70
2023/12/08 10:22:13;;;;;;;63.33;27.42;;;;;;;4.84;100.00;100569.22;5082298;28;20032;-70
2023/12/08 10:24:41;;;;;;;59.80;28.30;;;;;;;4.89;100.00;100580.69;5083026;28;20036;-71
2023/12/08 10:27:08;;;;;;;59.70;26.75;;;;;;;4.94;100.00;100578.19;5082901;28;20123;-70
2023/12/08 10:29:34;;;;;;;64.80;28.48;;;;;;;4.94;100.00;100580.78;5082967;28;20087;-70
2023/12/08 10:32:01;;;;;;;59.67;28.40;;;;;;;4.97;100.00;100583.47;5083769;28;20052;-70
2023/12/08 10:34:27;;;;;;;61.08;27.30;;;;;;;4.97;100.00;100583.47;5081340;28;20542;-71
2023/12/08 10:36:53;;;;;;;64.22;27.73;;;;;;;5.02;100.00;100591.44;5084769;28;20032;-71
2023/12/08 10:39:19;;;;;;;63.25;27.40;;;;;;;5.10;100.00;100591.59;5080956;28;20054;-71
2023/12/08 10:41:48;;;;;;;57.78;25.95;;;;;;;5.14;100.00;100586.50;5083730;28;20036;-71
2023/12/08 10:44:13;;;;;;;59.42;26.85;;;;;;;5.20;100.00;100591.88;5081808;28;20094;-70
2023/12/08 10:46:39;;;;;;;60.10;26.55;;;;;;;5.26;100.00;100593.75;5082818;28;20024;-69
2023/12/08 10:49:06;;;;;;;58.75;25.33;;;;;;;5.29;100.00;100590.31;5082992;28;20063;-71
2023/12/08 10:51:34;;;;;;;58.97;26.20;;;;;;;5.31;100.00;100592.09;5082401;28;20039;-69
2023/12/08 10:54:00;;;;;;;61.67;27.60;;;;;;;5.32;100.00;100596.50;5083620;28;20103;-67
2023/12/08 10:56:25;;;;;;;61.17;25.92;;;;;;;5.36;100.00;100576.47;5081712;28;20039;-71
2023/12/08 10:59:03;;;;;;;65.70;27.88;;;;;;;5.38;100.00;100578.25;5088558;28;20039;-67
2023/12/08 11:01:32;;;;;;;63.15;26.55;;;;;;;5.43;100.00;100583.59;5082829;28;20426;-71
2023/12/08 11:04:02;;;;;;;58.17;25.92;;;;;;;5.46;100.00;100588.03;5087935;28;20044;-68